Time;durP1;ratioP1;P1;durP2;ratioP2;P2;SDS_P1;SDS_P2;PMS_P1;PMS_P2;Temp;Humidity;BMP_temperature;BMP_pressure;BME280_temperature;BME280_humidity;BME280_pressure;Samples;Min_cycle;Max_cycle;Signal;HPM_P1;HPM_P2
2022/12/26 00:01:59;;;;;;;6.00;0.50;;;21.80;57.90;;;;;;5086058;28;20136;-53
2022/12/26 00:04:26;;;;;;;5.82;0.30;;;21.70;57.60;;;;;;5085567;28;20437;-54
2022/12/26 00:06:54;;;;;;;6.75;0.93;;;21.80;57.50;;;;;;5086512;28;20125;-50
2022/12/26 00:09:22;;;;;;;7.72;0.77;;;21.70;57.40;;;;;;5085386;28;20502;-52
2022/12/26 00:11:49;;;;;;;4.03;0.50;;;21.70;57.40;;;;;;5085978;28;20047;-54
2022/12/26 00:14:16;;;;;;;6.60;0.20;;;21.70;57.20;;;;;;5085494;28;20586;-51
2022/12/26 00:16:45;;;;;;;4.18;0.47;;;21.70;57.10;;;;;;5086115;28;20054;-53
2022/12/26 00:19:12;;;;;;;0.95;0.40;;;21.70;57.10;;;;;;5089196;28;20123;-51
2022/12/26 00:21:40;;;;;;;3.03;0.10;;;21.70;57.00;;;;;;5087761;28;20131;-52
2022/12/26 00:24:11;;;;;;;1.58;0.60;;;21.70;57.00;;;;;;5086580;28;20512;-54
2022/12/26 00:26:38;;;;;;;3.20;0.30;;;21.70;57.00;;;;;;5086224;28;20048;-50
2022/12/26 00:29:05;;;;;;;2.60;0.10;;;21.70;56.90;;;;;;5084934;28;20040;-49
2022/12/26 00:31:34;;;;;;;2.67;0.30;;;21.70;56.80;;;;;;5086223;28;20036;-52
2022/12/26 00:34:02;;;;;;;3.45;0.20;;;21.70;56.70;;;;;;5086191;28;20041;-50
2022/12/26 00:36:31;;;;;;;3.30;0.25;;;21.70;57.20;;;;;;5086310;28;20097;-50
2022/12/26 00:38:59;;;;;;;2.95;0.20;;;21.60;56.60;;;;;;5086303;28;20044;-52
2022/12/26 00:41:29;;;;;;;2.30;0.85;;;21.60;56.40;;;;;;5086547;28;20048;-48
2022/12/26 00:43:56;;;;;;;0.40;0.10;;;21.60;56.50;;;;;;5088677;28;20081;-53
2022/12/26 00:46:25;;;;;;;1.77;0.38;;;21.60;56.70;;;;;;5089538;28;20036;-50
2022/12/26 00:48:52;;;;;;;2.60;0.20;;;21.60;56.50;;;;;;5089840;28;20124;-52
2022/12/26 00:51:19;;;;;;;3.00;0.10;;;21.60;56.50;;;;;;5089833;28;20801;-53
2022/12/26 00:53:46;;;;;;;2.92;0.80;;;21.60;56.60;;;;;;5089892;28;20139;-51
2022/12/26 00:56:14;;;;;;;4.72;0.30;;;21.60;56.80;;;;;;5089730;28;20048;-52
2022/12/26 00:58:43;;;;;;;1.75;0.20;;;21.60;56.80;;;;;;5089594;28;20052;-49
2022/12/26 01:01:13;;;;;;;3.05;0.20;;;21.60;56.70;;;;;;5089391;28;20044;-56
2022/12/26 01:03:41;;;;;;;0.35;0.20;;;21.50;56.70;;;;;;5089461;28;20050;-48
2022/12/26 01:06:08;;;;;;;1.55;0.50;;;21.50;56.80;;;;;;5089405;28;20050;-52
2022/12/26 01:08:35;;;;;;;1.42;0.10;;;21.50;57.30;;;;;;5089026;28;20093;-50
2022/12/26 01:11:05;;;;;;;2.25;1.55;;;21.50;56.90;;;;;;5074488;28;20047;-51
2022/12/26 01:13:32;;;;;;;3.03;0.25;;;21.50;57.00;;;;;;5068992;28;20404;-50
2022/12/26 01:16:01;;;;;;;0.60;0.20;;;21.50;57.00;;;;;;5068892;28;20068;-50
2022/12/26 01:18:28;;;;;;;1.02;0.10;;;21.40;56.80;;;;;;5070643;28;20070;-51
2022/12/26 01:20:59;;;;;;;1.20;0.20;;;21.50;56.70;;;;;;5089304;28;20048;-51
2022/12/26 01:23:26;;;;;;;3.20;1.20;;;21.40;56.90;;;;;;5089324;28;20127;-54
2022/12/26 01:25:53;;;;;;;1.00;0.10;;;21.40;56.70;;;;;;5089122;28;20460;-53
2022/12/26 01:28:20;;;;;;;1.27;0.10;;;21.40;57.00;;;;;;5089132;28;20130;-53
2022/12/26 01:30:47;;;;;;;0.20;0.10;;;21.40;57.20;;;;;;5088895;28;20135;-52
2022/12/26 01:33:16;;;;;;;2.65;0.10;;;21.40;57.30;;;;;;5088816;28;20513;-54
2022/12/26 01:35:50;;;;;;;1.55;0.10;;;21.40;57.40;;;;;;5088987;28;20028;-53
2022/12/26 01:38:17;;;;;;;2.30;0.10;;;21.40;57.50;;;;;;5097047;28;20077;-52
2022/12/26 01:40:44;;;;;;;0.65;0.10;;;21.40;57.60;;;;;;5091811;28;20524;-53
2022/12/26 01:43:13;;;;;;;0.20;0.10;;;21.40;57.40;;;;;;5089244;28;20079;-54
2022/12/26 01:45:45;;;;;;;3.22;0.22;;;21.40;57.30;;;;;;5105977;28;20044;-52
2022/12/26 01:48:20;;;;;;;1.38;0.10;;;21.40;57.40;;;;;;5109125;28;20488;-52
2022/12/26 01:50:51;;;;;;;1.58;0.40;;;21.40;57.60;;;;;;5109108;28;20052;-55
2022/12/26 01:53:22;;;;;;;0.40;0.10;;;21.30;57.60;;;;;;5107888;28;20266;-50
2022/12/26 01:55:54;;;;;;;2.90;0.20;;;21.30;57.60;;;;;;5109157;28;20130;-49
2022/12/26 01:58:26;;;;;;;0.68;0.10;;;21.30;57.60;;;;;;5107777;28;20047;-52
2022/12/26 02:00:54;;;;;;;0.63;0.10;;;21.30;57.60;;;;;;5068535;28;20123;-50
2022/12/26 02:06:09;;;;;;;2.33;0.20;;;21.30;57.80;;;;;;5068195;28;20044;-53
2022/12/26 02:08:38;;;;;;;0.10;0.10;;;21.30;57.80;;;;;;5068285;28;20047;-48
2022/12/26 02:11:11;;;;;;;0.75;0.10;;;21.30;57.90;;;;;;5088301;28;20044;-51
2022/12/26 02:13:39;;;;;;;2.83;0.40;;;21.30;57.90;;;;;;5087851;28;20215;-53
2022/12/26 02:16:10;;;;;;;0.63;0.25;;;21.30;58.00;;;;;;5088293;28;20032;-51
2022/12/26 02:18:38;;;;;;;0.80;0.15;;;21.30;58.00;;;;;;5088291;28;22028;-52
2022/12/26 02:21:24;;;;;;;0.50;0.10;;;21.30;58.00;;;;;;5088016;28;20046;-50
2022/12/26 02:24:09;;;;;;;5.33;0.17;;;21.20;58.00;;;;;;5090213;28;20129;-52
2022/12/26 02:27:03;;;;;;;2.47;0.55;;;21.20;58.00;;;;;;5087788;28;20121;-53
2022/12/26 02:30:03;;;;;;;2.50;0.10;;;21.20;58.00;;;;;;5088047;28;20093;-50
2022/12/26 02:32:51;;;;;;;1.65;0.10;;;21.30;58.10;;;;;;5087995;28;20040;-53
2022/12/26 02:35:29;;;;;;;3.22;0.10;;;21.20;58.20;;;;;;5087929;28;20514;-50
2022/12/26 02:38:07;;;;;;;2.40;0.05;;;21.20;58.10;;;;;;5087751;28;20040;-50
2022/12/26 02:40:47;;;;;;;3.50;0.10;;;21.20;58.20;;;;;;5087671;28;20140;-53
2022/12/26 02:43:21;;;;;;;1.65;0.10;;;21.20;58.30;;;;;;5087511;28;20153;-49
2022/12/26 02:48:52;;;;;;;1.00;0.00;;;21.20;58.30;;;;;;5070703;28;20051;-52
2022/12/26 03:14:17;;;;;;;0.73;0.10;;;21.10;59.00;;;;;;5066919;28;20050;-53
2022/12/26 03:19:31;;;;;;;0.93;0.00;;;21.10;58.40;;;;;;5063649;28;20066;-50
2022/12/26 03:22:29;;;;;;;1.95;0.17;;;21.10;58.40;;;;;;5087143;28;20044;-52
2022/12/26 03:27:30;;;;;;;2.22;0.40;;;21.00;58.10;;;;;;5086848;28;20047;-49
2022/12/26 03:32:44;;;;;;;0.40;0.00;;;21.00;58.10;;;;;;5087089;28;20047;-50
2022/12/26 03:35:13;;;;;;;1.20;0.03;;;21.00;58.10;;;;;;5082685;28;20106;-52
2022/12/26 03:37:49;;;;;;;1.05;0.00;;;21.00;58.10;;;;;;5066822;28;20051;-53
2022/12/26 04:20:46;;;;;;;0.10;0.00;;;21.00;57.60;;;;;;5027379;28;20053;-52
2022/12/26 04:45:52;;;;;;;0.52;0.00;;;20.90;57.20;;;;;;5089819;28;20040;-50
2022/12/26 04:51:05;;;;;;;0.85;0.00;;;20.90;57.10;;;;;;5089769;28;20543;-51
2022/12/26 04:53:32;;;;;;;0.90;0.00;;;20.90;56.90;;;;;;5089575;28;20508;-51
2022/12/26 04:55:59;;;;;;;0.00;0.00;;;20.90;56.80;;;;;;5089638;28;20564;-51
2022/12/26 04:58:26;;;;;;;2.10;0.00;;;20.90;56.70;;;;;;5089255;28;20676;-50
2022/12/26 05:09:32;;;;;;;0.47;0.00;;;20.90;56.50;;;;;;5089677;28;20147;-51
2022/12/26 05:11:58;;;;;;;0.43;0.00;;;20.90;56.50;;;;;;5089482;28;20036;-55
2022/12/26 05:14:25;;;;;;;0.57;0.10;;;20.90;56.70;;;;;;5089777;28;20040;-51
2022/12/26 05:31:00;;;;;;;0.10;0.00;;;20.90;56.60;;;;;;5033564;28;20417;-53
2022/12/26 05:36:15;;;;;;;0.10;0.00;;;20.90;56.50;;;;;;5045622;28;20052;-54
2022/12/26 05:38:42;;;;;;;0.05;0.00;;;20.90;56.30;;;;;;5029314;28;20548;-54
2022/12/26 05:41:09;;;;;;;1.73;0.00;;;20.90;56.20;;;;;;5045723;28;20061;-54
2022/12/26 05:43:36;;;;;;;0.10;0.00;;;20.90;56.20;;;;;;5044155;28;20064;-55
2022/12/26 05:46:03;;;;;;;1.50;0.50;;;20.90;56.40;;;;;;5045425;28;20056;-50
2022/12/26 05:48:32;;;;;;;0.25;0.00;;;20.90;56.20;;;;;;5045347;28;20067;-53
2022/12/26 05:51:00;;;;;;;0.88;0.00;;;20.90;56.20;;;;;;5045437;28;20075;-53
2022/12/26 05:53:27;;;;;;;2.80;0.00;;;20.90;56.10;;;;;;5045919;28;20060;-51
2022/12/26 05:55:54;;;;;;;1.02;0.00;;;20.90;56.00;;;;;;5045757;28;20045;-53
2022/12/26 05:58:21;;;;;;;1.55;0.03;;;20.90;56.00;;;;;;5045360;28;20045;-50
2022/12/26 06:00:48;;;;;;;0.10;0.00;;;20.90;56.30;;;;;;5046527;28;20151;-53
2022/12/26 06:03:16;;;;;;;0.00;0.00;;;20.90;56.00;;;;;;5088544;28;20207;-48
2022/12/26 06:05:44;;;;;;;0.15;0.13;;;20.90;55.90;;;;;;5087568;28;20051;-51
2022/12/26 06:08:11;;;;;;;0.20;0.00;;;20.90;56.00;;;;;;5088563;28;20059;-52
2022/12/26 06:10:38;;;;;;;0.43;0.43;;;20.90;55.90;;;;;;5086887;28;20473;-49
2022/12/26 06:13:05;;;;;;;0.13;0.00;;;20.90;55.90;;;;;;5088460;28;20113;-50
2022/12/26 06:15:32;;;;;;;0.22;0.00;;;20.90;55.90;;;;;;5088563;28;20044;-54
2022/12/26 06:17:59;;;;;;;0.63;0.00;;;20.90;55.90;;;;;;5087742;28;20062;-50
2022/12/26 06:20:26;;;;;;;0.40;0.00;;;20.90;56.00;;;;;;5087348;28;20117;-52
2022/12/26 06:22:54;;;;;;;0.03;0.00;;;20.90;56.00;;;;;;5088325;28;20059;-54
2022/12/26 06:25:22;;;;;;;0.45;0.00;;;20.90;56.40;;;;;;5087582;28;20046;-50
2022/12/26 06:27:49;;;;;;;0.65;0.00;;;20.90;55.80;;;;;;5086591;28;20035;-52
2022/12/26 06:30:16;;;;;;;0.30;0.10;;;20.90;55.60;;;;;;5088238;28;20052;-52
2022/12/26 06:32:43;;;;;;;3.03;0.10;;;20.90;55.80;;;;;;5088379;28;20039;-52
2022/12/26 06:35:11;;;;;;;0.10;0.00;;;20.90;55.90;;;;;;5086918;28;20040;-52
2022/12/26 06:37:38;;;;;;;0.47;0.08;;;20.90;55.80;;;;;;5087720;28;20048;-50
2022/12/26 06:40:08;;;;;;;1.75;0.00;;;20.90;55.80;;;;;;5087279;28;20044;-53
2022/12/26 06:42:35;;;;;;;0.00;0.00;;;20.90;55.70;;;;;;5087814;28;20104;-53
2022/12/26 06:45:03;;;;;;;0.52;0.08;;;20.90;55.70;;;;;;5086450;28;20726;-50
2022/12/26 06:47:30;;;;;;;1.10;0.52;;;20.90;55.80;;;;;;5084323;28;20118;-50
2022/12/26 06:49:57;;;;;;;1.17;1.08;;;20.90;55.80;;;;;;5070492;28;20049;-49
2022/12/26 06:52:24;;;;;;;0.15;0.00;;;20.90;55.50;;;;;;5077301;28;20044;-50
2022/12/26 06:54:51;;;;;;;1.73;0.17;;;20.80;55.30;;;;;;5087371;28;20566;-53
2022/12/26 06:57:20;;;;;;;1.38;0.00;;;20.90;55.60;;;;;;5087241;28;20039;-52
2022/12/26 06:59:47;;;;;;;1.27;0.28;;;20.80;55.60;;;;;;5087458;28;20518;-49
2022/12/26 07:02:14;;;;;;;0.13;0.00;;;20.80;55.60;;;;;;5086947;28;20097;-49
2022/12/26 07:04:41;;;;;;;0.63;0.00;;;20.80;55.50;;;;;;5087290;28;20090;-51
2022/12/26 07:07:08;;;;;;;0.43;0.00;;;20.80;55.30;;;;;;5086735;28;20143;-52
2022/12/26 07:09:35;;;;;;;0.10;0.00;;;20.80;55.30;;;;;;5087516;28;20040;-49
2022/12/26 07:12:02;;;;;;;0.32;0.00;;;20.80;55.40;;;;;;5086809;28;20098;-52
2022/12/26 07:14:30;;;;;;;1.50;0.00;;;20.80;55.50;;;;;;5087496;28;20055;-50
2022/12/26 07:16:57;;;;;;;0.68;0.00;;;20.80;55.40;;;;;;5086582;28;20048;-49
2022/12/26 07:19:24;;;;;;;1.08;0.05;;;20.80;55.60;;;;;;5087147;28;20040;-53
2022/12/26 07:21:51;;;;;;;1.00;0.00;;;20.80;55.60;;;;;;5086602;28;20063;-52
2022/12/26 07:24:21;;;;;;;0.65;0.10;;;20.80;55.50;;;;;;5087033;28;20128;-52
2022/12/26 07:26:48;;;;;;;1.88;0.32;;;20.80;55.30;;;;;;5086946;28;20084;-51
2022/12/26 07:29:16;;;;;;;0.63;0.00;;;20.80;55.30;;;;;;5086962;28;20095;-50
2022/12/26 07:31:45;;;;;;;0.73;0.10;;;20.80;55.50;;;;;;5086256;28;20044;-52
2022/12/26 07:34:12;;;;;;;1.23;0.22;;;20.80;56.20;;;;;;5087792;28;20032;-54
2022/12/26 07:36:39;;;;;;;0.40;0.10;;;20.80;55.70;;;;;;5100445;28;20051;-51
2022/12/26 07:39:06;;;;;;;0.35;0.00;;;20.80;55.60;;;;;;5074764;28;20525;-52
2022/12/26 07:44:20;;;;;;;2.05;0.08;;;20.80;56.10;;;;;;5087393;28;20040;-71
2022/12/26 07:46:49;;;;;;;1.65;0.00;;;20.80;56.40;;;;;;5086742;28;20044;-77
2022/12/26 07:49:16;;;;;;;13.48;0.10;;;20.90;56.70;;;;;;5089879;28;20123;-71
2022/12/26 07:51:43;;;;;;;0.73;0.00;;;20.90;57.20;;;;;;5090539;28;20059;-69
2022/12/26 07:54:11;;;;;;;0.57;0.00;;;21.00;56.70;;;;;;5093750;28;20046;-62
2022/12/26 07:56:38;;;;;;;1.27;0.00;;;21.00;56.70;;;;;;5090828;28;20252;-63
2022/12/26 07:59:05;;;;;;;1.40;0.17;;;21.10;56.60;;;;;;5089330;28;20398;-58
2022/12/26 08:01:32;;;;;;;0.30;0.00;;;21.20;56.60;;;;;;5087559;28;20059;-56
2022/12/26 08:04:01;;;;;;;0.35;0.00;;;21.20;56.50;;;;;;5090086;28;20539;-55
2022/12/26 08:06:28;;;;;;;0.57;0.10;;;21.30;56.40;;;;;;5090340;28;20599;-54
2022/12/26 08:08:56;;;;;;;1.13;0.10;;;21.30;56.30;;;;;;5090164;28;20549;-59
2022/12/26 08:11:24;;;;;;;6.47;0.00;;;21.40;56.20;;;;;;5090270;28;20127;-51
2022/12/26 08:13:52;;;;;;;3.67;0.30;;;21.40;56.10;;;;;;5090200;28;20048;-51
2022/12/26 08:16:20;;;;;;;0.98;0.20;;;21.40;55.90;;;;;;5088881;28;20047;-55
2022/12/26 08:18:47;;;;;;;0.28;0.03;;;21.50;55.90;;;;;;5089952;28;20870;-58
2022/12/26 08:21:16;;;;;;;0.65;0.20;;;21.50;55.70;;;;;;5089712;28;20055;-56
2022/12/26 08:23:44;;;;;;;1.10;0.28;;;21.60;55.60;;;;;;5096947;28;20052;-51
2022/12/26 08:26:19;;;;;;;6.72;0.08;;;21.60;55.50;;;;;;5089329;28;20046;-49
2022/12/26 08:28:46;;;;;;;3.90;0.75;;;21.60;55.40;;;;;;5085079;28;20059;-51
2022/12/26 08:31:13;;;;;;;5.70;0.10;;;21.70;55.40;;;;;;5090594;28;20055;-73
2022/12/26 08:33:41;;;;;;;1.90;0.15;;;21.70;55.40;;;;;;5096474;28;20577;-62
2022/12/26 08:36:11;;;;;;;1.45;0.00;;;21.70;55.20;;;;;;5099735;28;20042;-63
2022/12/26 08:38:40;;;;;;;4.28;0.10;;;21.80;55.20;;;;;;5084191;28;20079;-50
2022/12/26 08:41:07;;;;;;;4.47;0.10;;;21.80;55.00;;;;;;5087030;28;20146;-46
2022/12/26 08:43:34;;;;;;;6.00;0.10;;;21.80;55.00;;;;;;5077084;28;20044;-44
2022/12/26 08:46:04;;;;;;;8.60;0.10;;;21.90;54.90;;;;;;5087537;28;20036;-45
2022/12/26 08:48:31;;;;;;;3.20;0.10;;;21.90;54.90;;;;;;5088659;28;20114;-46
2022/12/26 08:51:00;;;;;;;1.80;0.43;;;21.90;54.60;;;;;;5085829;28;20052;-45
2022/12/26 08:53:29;;;;;;;7.72;0.20;;;22.00;54.50;;;;;;5090198;28;20440;-47
2022/12/26 08:55:57;;;;;;;0.60;0.50;;;22.00;54.40;;;;;;5090090;28;20043;-45
2022/12/26 08:58:24;;;;;;;2.25;0.10;;;22.00;54.10;;;;;;5088102;28;20453;-45
2022/12/26 09:00:52;;;;;;;1.60;0.30;;;22.00;53.90;;;;;;5089786;28;20044;-45
2022/12/26 09:03:19;;;;;;;2.40;0.10;;;22.00;53.80;;;;;;5088815;28;20043;-48
2022/12/26 09:05:46;;;;;;;0.80;0.10;;;22.00;53.70;;;;;;5089723;28;20119;-45
2022/12/26 09:08:13;;;;;;;0.20;0.20;;;22.00;53.50;;;;;;5089665;28;20067;-47
2022/12/26 09:10:40;;;;;;;4.25;0.22;;;22.00;53.40;;;;;;5088264;28;20054;-45
2022/12/26 09:13:09;;;;;;;1.65;0.30;;;22.00;53.30;;;;;;5086141;28;20036;-47
2022/12/26 09:15:36;;;;;;;2.05;0.00;;;22.00;53.20;;;;;;5079430;28;20050;-46
2022/12/26 09:18:03;;;;;;;1.85;0.75;;;22.00;53.30;;;;;;5093751;28;20574;-48
2022/12/26 09:20:30;;;;;;;3.65;0.10;;;22.10;53.50;;;;;;5086255;28;20039;-47
2022/12/26 09:22:57;;;;;;;0.38;0.10;;;22.10;53.70;;;;;;5087617;28;20052;-49
2022/12/26 09:25:26;;;;;;;0.43;0.10;;;22.10;53.90;;;;;;5088615;28;20044;-48
2022/12/26 09:27:53;;;;;;;2.72;0.25;;;22.10;54.00;;;;;;5098657;28;20454;-48
2022/12/26 09:30:22;;;;;;;1.58;0.10;;;22.10;54.20;;;;;;5088029;28;20039;-61
2022/12/26 09:32:49;;;;;;;2.10;0.30;;;22.20;54.50;;;;;;5090400;28;20044;-53
2022/12/26 09:35:17;;;;;;;5.85;0.10;;;22.20;54.70;;;;;;5090120;28;20036;-48
2022/12/26 09:37:44;;;;;;;1.38;0.22;;;22.30;53.10;;;;;;5087645;28;20501;-46
2022/12/26 09:40:31;;;;;;;1.90;0.22;;;22.10;51.20;;;;;;5089353;28;20052;-47
2022/12/26 09:43:07;;;;;;;6.22;0.77;;;22.00;49.70;;;;;;5085018;28;20105;-46
2022/12/26 09:45:49;;;;;;;3.92;0.10;;;21.70;49.40;;;;;;5089020;28;20047;-47
2022/12/26 09:48:22;;;;;;;3.53;0.20;;;21.50;49.50;;;;;;5088240;28;20043;-48
2022/12/26 09:50:51;;;;;;;3.50;0.17;;;21.20;49.80;;;;;;5087727;28;20050;-47
2022/12/26 09:53:22;;;;;;;4.07;0.73;;;21.00;50.00;;;;;;5088824;28;20051;-46
2022/12/26 09:55:52;;;;;;;3.92;0.10;;;20.80;49.80;;;;;;5088247;28;20515;-50
2022/12/26 09:58:26;;;;;;;2.88;0.10;;;20.60;49.80;;;;;;5083542;28;20579;-59
2022/12/26 10:00:59;;;;;;;4.25;0.10;;;20.40;51.40;;;;;;5094080;28;20059;-61
2022/12/26 10:03:27;;;;;;;2.83;0.03;;;20.40;53.00;;;;;;5087279;28;20119;-64
2022/12/26 10:06:13;;;;;;;3.40;0.75;;;20.50;53.90;;;;;;5084871;28;20121;-61
2022/12/26 10:08:57;;;;;;;3.88;0.10;;;20.80;54.40;;;;;;5085320;28;20044;-62
2022/12/26 10:11:34;;;;;;;4.28;0.35;;;21.00;54.50;;;;;;5088123;28;20070;-62
2022/12/26 10:14:08;;;;;;;5.22;0.10;;;21.30;54.60;;;;;;5087530;28;20895;-60
2022/12/26 10:16:47;;;;;;;1.15;0.10;;;21.60;54.60;;;;;;5087617;28;20078;-54
2022/12/26 10:19:28;;;;;;;1.15;0.13;;;21.80;54.50;;;;;;5087223;28;20067;-56
2022/12/26 10:22:07;;;;;;;4.18;0.45;;;22.00;54.60;;;;;;5087750;28;20047;-54
2022/12/26 10:24:37;;;;;;;0.30;0.10;;;22.20;54.50;;;;;;5086154;28;20125;-50
2022/12/26 10:27:12;;;;;;;1.88;0.08;;;22.30;54.50;;;;;;5078444;28;20036;-56
2022/12/26 10:29:42;;;;;;;0.20;0.20;;;22.50;54.40;;;;;;5086889;28;20058;-56
2022/12/26 10:32:14;;;;;;;0.82;0.10;;;22.60;54.20;;;;;;5088006;28;20408;-55
2022/12/26 10:34:43;;;;;;;4.72;0.10;;;22.80;54.30;;;;;;5087584;28;20460;-62
2022/12/26 10:37:17;;;;;;;3.50;0.28;;;22.90;54.40;;;;;;5086142;28;20043;-60
2022/12/26 10:39:51;;;;;;;2.50;0.10;;;23.00;54.10;;;;;;5087278;28;20639;-61
2022/12/26 10:42:24;;;;;;;4.15;0.10;;;23.10;54.00;;;;;;5080554;28;20040;-62
2022/12/26 10:44:51;;;;;;;1.20;0.05;;;23.20;53.90;;;;;;5086071;28;20528;-59
2022/12/26 10:47:25;;;;;;;3.13;0.10;;;23.40;53.80;;;;;;5086914;28;20074;-59
2022/12/26 10:49:53;;;;;;;5.05;0.30;;;23.50;53.40;;;;;;5086684;28;20109;-61
2022/12/26 10:52:28;;;;;;;0.45;0.15;;;23.60;53.90;;;;;;5084419;28;20032;-58
2022/12/26 10:54:58;;;;;;;4.80;0.10;;;23.60;53.20;;;;;;5081398;28;20044;-57
2022/12/26 10:57:28;;;;;;;1.33;0.30;;;23.70;53.20;;;;;;5087699;28;20035;-63
2022/12/26 10:59:56;;;;;;;5.97;0.10;;;23.80;53.10;;;;;;5087508;28;20288;-63
2022/12/26 11:02:26;;;;;;;1.95;0.10;;;23.90;53.00;;;;;;5087082;28;20830;-60
2022/12/26 11:04:59;;;;;;;0.45;0.38;;;24.00;53.20;;;;;;5085911;28;20424;-61
2022/12/26 11:07:30;;;;;;;5.00;0.10;;;24.10;53.10;;;;;;5087032;28;20123;-58
2022/12/26 11:09:58;;;;;;;1.15;0.10;;;24.20;53.10;;;;;;5087027;28;20067;-51
2022/12/26 11:12:33;;;;;;;2.20;0.75;;;24.20;53.20;;;;;;5087480;28;20036;-50
2022/12/26 11:15:03;;;;;;;14.30;0.20;;;24.20;52.80;;;;;;5087143;28;20081;-49
2022/12/26 11:17:35;;;;;;;4.47;0.10;;;24.20;52.60;;;;;;5087149;28;20572;-56
2022/12/26 11:20:18;;;;;;;2.50;0.10;;;24.10;52.30;;;;;;5087071;28;20050;-54
2022/12/26 11:22:46;;;;;;;4.85;0.35;;;24.10;52.20;;;;;;5087229;28;20466;-55
2022/12/26 11:25:19;;;;;;;8.13;0.10;;;24.00;52.30;;;;;;5086388;28;20036;-54
2022/12/26 11:27:48;;;;;;;2.38;0.17;;;24.00;52.30;;;;;;5080011;28;20671;-51
2022/12/26 11:30:28;;;;;;;4.97;0.22;;;23.90;52.30;;;;;;5082874;28;20123;-52
2022/12/26 11:33:18;;;;;;;1.00;0.03;;;23.90;52.60;;;;;;5086750;28;20821;-47
2022/12/26 11:35:48;;;;;;;1.83;0.20;;;23.80;52.60;;;;;;5086672;28;20055;-49
2022/12/26 11:43:46;;;;;;;4.93;0.28;;;23.70;52.70;;;;;;5084026;28;20372;-51
2022/12/26 11:46:13;;;;;;;9.63;0.50;;;23.60;52.90;;;;;;5086834;28;20217;-50
2022/12/26 11:48:47;;;;;;;8.02;0.30;;;23.60;52.90;;;;;;5086462;28;20048;-51
2022/12/26 11:51:14;;;;;;;2.42;0.03;;;23.60;53.10;;;;;;5086674;28;20074;-49
2022/12/26 11:53:41;;;;;;;3.33;0.15;;;23.50;53.00;;;;;;5088274;28;20051;-51
2022/12/26 11:56:10;;;;;;;1.85;0.10;;;23.50;53.00;;;;;;5086542;28;20040;-51
2022/12/26 11:58:37;;;;;;;9.82;0.30;;;23.50;53.00;;;;;;5086467;28;20135;-51
2022/12/26 12:01:15;;;;;;;4.65;0.57;;;23.50;52.90;;;;;;5079887;28;20855;-57
2022/12/26 12:03:46;;;;;;;5.70;0.82;;;23.40;52.80;;;;;;5086522;28;20040;-50
2022/12/26 12:06:30;;;;;;;16.27;1.55;;;23.40;53.00;;;;;;5086531;28;20917;-54
2022/12/26 12:09:06;;;;;;;7.38;0.50;;;23.30;53.10;;;;;;5085957;28;20061;-51
2022/12/26 12:11:41;;;;;;;5.50;0.13;;;23.30;53.20;;;;;;5086722;28;20059;-49
2022/12/26 12:14:24;;;;;;;6.82;0.20;;;23.20;53.50;;;;;;5079012;28;20044;-55
2022/12/26 12:17:03;;;;;;;7.18;0.47;;;23.20;53.40;;;;;;5086252;28;20066;-52
2022/12/26 12:20:00;;;;;;;7.85;0.15;;;23.20;54.00;;;;;;5086162;28;20036;-50
2022/12/26 12:22:59;;;;;;;0.82;0.10;;;23.20;53.40;;;;;;5085697;28;20533;-49
2022/12/26 12:25:39;;;;;;;2.63;0.47;;;23.10;53.60;;;;;;5075463;28;20052;-52
2022/12/26 12:28:25;;;;;;;2.70;0.10;;;23.10;53.70;;;;;;5078207;28;20136;-53
2022/12/26 12:31:02;;;;;;;4.95;0.28;;;23.10;54.20;;;;;;5079071;28;20394;-50
2022/12/26 12:33:48;;;;;;;2.92;0.10;;;23.10;54.50;;;;;;5099776;28;20509;-54
2022/12/26 12:36:22;;;;;;;7.57;0.40;;;23.10;54.70;;;;;;5085411;28;20085;-52
2022/12/26 12:39:00;;;;;;;4.28;0.10;;;23.00;55.30;;;;;;5087925;28;20123;-58
2022/12/26 12:41:53;;;;;;;2.58;0.10;;;23.00;55.90;;;;;;5089387;28;20134;-54
2022/12/26 12:44:26;;;;;;;3.33;0.10;;;23.00;56.10;;;;;;5083740;28;20508;-55
2022/12/26 12:47:01;;;;;;;3.97;0.55;;;23.00;56.30;;;;;;5089415;28;20052;-55
2022/12/26 12:49:42;;;;;;;4.75;0.10;;;23.00;56.20;;;;;;5089312;28;20093;-54
2022/12/26 12:52:23;;;;;;;4.85;1.08;;;23.00;56.20;;;;;;5101489;28;20062;-54
2022/12/26 12:55:11;;;;;;;5.35;0.10;;;23.00;56.40;;;;;;5090378;28;20048;-55
2022/12/26 12:57:45;;;;;;;3.50;0.10;;;23.00;56.50;;;;;;5089950;28;20040;-54
2022/12/26 13:00:16;;;;;;;1.77;0.10;;;23.00;56.70;;;;;;5090224;28;20066;-57
2022/12/26 13:02:48;;;;;;;1.45;0.75;;;23.00;56.70;;;;;;5089485;28;20478;-54
2022/12/26 13:05:22;;;;;;;0.55;0.10;;;22.90;56.50;;;;;;5089434;28;20081;-52
2022/12/26 13:07:57;;;;;;;0.40;0.10;;;23.00;56.50;;;;;;5079444;28;20056;-53
2022/12/26 13:10:29;;;;;;;1.92;0.10;;;22.90;56.40;;;;;;5084179;28;20504;-53
2022/12/26 13:12:59;;;;;;;0.20;0.10;;;22.90;56.50;;;;;;5088006;28;20044;-51
2022/12/26 13:15:34;;;;;;;3.00;0.10;;;22.90;56.50;;;;;;5089249;28;20036;-54
2022/12/26 13:18:05;;;;;;;1.00;0.10;;;22.90;56.20;;;;;;5089111;28;20068;-52
2022/12/26 13:20:40;;;;;;;0.35;0.10;;;23.00;56.30;;;;;;5086916;28;20505;-54
2022/12/26 13:26:09;;;;;;;3.33;0.10;;;23.10;56.50;;;;;;5082164;28;20039;-54
2022/12/26 13:28:42;;;;;;;2.78;0.10;;;23.10;56.40;;;;;;5088733;28;20077;-50
2022/12/26 13:31:09;;;;;;;2.55;0.20;;;23.20;56.70;;;;;;5088542;28;20461;-53
2022/12/26 13:33:36;;;;;;;1.40;0.10;;;23.20;56.30;;;;;;5085326;28;20040;-53
2022/12/26 13:36:05;;;;;;;1.20;0.00;;;23.20;56.00;;;;;;5088035;28;20149;-54
2022/12/26 13:39:29;;;;;;;0.98;0.20;;;23.30;55.80;;;;;;5088066;28;20040;-52
2022/12/26 13:44:50;;;;;;;1.33;0.10;;;23.30;55.50;;;;;;5004116;28;20619;-55
2022/12/26 13:47:36;;;;;;;3.33;0.65;;;23.30;55.60;;;;;;5008242;28;20049;-59
2022/12/26 13:50:46;;;;;;;0.70;0.20;;;23.40;55.70;;;;;;5006116;28;20092;-60
2022/12/26 13:53:28;;;;;;;4.57;0.10;;;23.40;56.00;;;;;;5006011;28;20104;-61
2022/12/26 13:55:57;;;;;;;2.15;0.10;;;23.40;56.30;;;;;;5006058;28;20054;-57
2022/12/26 13:58:41;;;;;;;0.63;0.10;;;23.40;56.20;;;;;;5005630;28;20464;-60
2022/12/26 14:01:20;;;;;;;1.17;0.17;;;23.50;55.90;;;;;;4991770;28;20049;-60
2022/12/26 14:04:03;;;;;;;0.25;0.10;;;23.50;56.00;;;;;;5005303;28;20144;-56
2022/12/26 14:06:50;;;;;;;2.67;0.10;;;23.50;55.90;;;;;;5002207;28;20133;-56
2022/12/26 14:09:39;;;;;;;0.55;0.10;;;23.50;55.80;;;;;;4991368;28;20097;-56
2022/12/26 14:12:32;;;;;;;3.80;0.52;;;23.50;55.90;;;;;;5004918;28;20073;-58
2022/12/26 14:15:08;;;;;;;1.05;0.10;;;23.50;55.70;;;;;;5005404;28;20840;-48
2022/12/26 14:17:46;;;;;;;1.00;0.10;;;23.40;54.40;;;;;;5048682;28;20802;-48
2022/12/26 14:20:26;;;;;;;2.72;0.10;;;23.40;53.90;;;;;;5086623;28;20424;-48
2022/12/26 14:23:02;;;;;;;1.10;0.00;;;23.40;53.30;;;;;;5087700;28;20480;-47
2022/12/26 14:25:38;;;;;;;5.53;0.20;;;23.40;52.90;;;;;;5087809;28;20043;-50
2022/12/26 14:28:12;;;;;;;2.00;0.10;;;23.30;53.10;;;;;;5087877;28;20040;-47
2022/12/26 14:31:04;;;;;;;1.23;0.30;;;23.30;52.00;;;;;;5087610;28;20040;-49
2022/12/26 14:33:38;;;;;;;0.45;0.32;;;23.30;51.90;;;;;;5087230;28;20147;-51
2022/12/26 14:36:18;;;;;;;2.70;0.30;;;23.30;51.60;;;;;;5099029;28;20364;-48
2022/12/26 14:38:51;;;;;;;0.82;0.00;;;23.30;51.20;;;;;;5108279;28;20039;-53
2022/12/26 14:44:11;;;;;;;0.63;0.10;;;23.20;51.50;;;;;;5108369;28;20120;-49
2022/12/26 14:47:01;;;;;;;0.60;0.10;;;23.20;50.50;;;;;;5106602;28;20512;-49
2022/12/26 14:49:39;;;;;;;1.35;0.03;;;23.10;50.50;;;;;;5088051;28;20068;-51
2022/12/26 14:52:46;;;;;;;1.45;0.10;;;23.10;50.80;;;;;;5087695;28;20476;-50
2022/12/26 14:55:48;;;;;;;1.75;0.10;;;23.00;50.50;;;;;;5081449;28;20052;-49
2022/12/26 14:58:26;;;;;;;1.08;0.17;;;22.90;50.90;;;;;;5087777;28;20040;-49
2022/12/26 15:00:54;;;;;;;0.20;0.05;;;22.90;50.80;;;;;;5086752;28;20748;-48
2022/12/26 15:03:44;;;;;;;2.35;0.00;;;22.80;51.00;;;;;;5087492;28;20048;-50
2022/12/26 15:06:49;;;;;;;1.85;0.10;;;22.80;50.90;;;;;;5087551;28;20131;-50
2022/12/26 15:09:41;;;;;;;0.10;0.00;;;22.70;50.80;;;;;;5087651;28;20820;-53
2022/12/26 15:12:39;;;;;;;0.20;0.20;;;22.70;50.70;;;;;;5087781;28;20072;-55
2022/12/26 15:15:28;;;;;;;0.63;0.00;;;22.60;51.20;;;;;;5086766;28;20050;-49
2022/12/26 15:18:24;;;;;;;1.75;0.10;;;22.60;51.20;;;;;;5088891;28;20098;-51
2022/12/26 15:21:12;;;;;;;0.20;0.10;;;22.50;51.80;;;;;;5087546;28;20131;-54
2022/12/26 15:24:15;;;;;;;0.90;0.05;;;22.40;51.40;;;;;;5087414;28;20135;-49
2022/12/26 15:27:20;;;;;;;0.80;0.08;;;22.40;51.60;;;;;;5004614;28;20423;-48
2022/12/26 15:30:15;;;;;;;0.52;0.00;;;22.40;51.50;;;;;;5004241;28;20144;-49
2022/12/26 15:32:51;;;;;;;1.38;0.10;;;22.30;51.90;;;;;;5004605;28;20077;-52
2022/12/26 15:35:23;;;;;;;1.23;0.47;;;22.30;52.10;;;;;;5004422;28;20601;-49
2022/12/26 15:38:07;;;;;;;1.35;0.15;;;22.20;52.00;;;;;;5004656;28;20046;-50
2022/12/26 15:40:42;;;;;;;0.65;0.10;;;22.20;51.90;;;;;;4988093;28;20068;-50